ソルトレイクシティ の空港の天気 - METARとTAF

ソルト・レーク・シティ国際空港 ( KSLC / SLC ) - アメリカ ユタ州ソルトレイクシティ
飛行場実況気象(Metar)
観測時間08/25 12:54 MDT (08/25 18:54 UTC)
風向・風速北北西 5m/s
視程10km以上
天気現象
少しの雲 雲底高度 3050m
気温32.2℃
湿度15%
気圧1010.7hPa
METARKSLC 251854Z 33010KT 10SM FEW100 32/02 A3004 RMK AO2 SLP107 T03220022
過去の天気等 Google飛行場航空写真 Wunderground天気予報

過去48時間のMETAR

飛行場予報(TAF)
発表時間: 8/25 11:29 MDT (8/25 17:29 UTC)
予報対象時間: 25日12時 MDT ~ 26日18時 MDT
風向・風速西北西 5m/s
視程10km以上
なし
25日16時 MDT から
風向・風速北北西 6m/s 瞬間風速 10m/s
視程10km以上
なし
25日21時 MDT から
風向・風速北北西 3m/s
視程10km以上
なし
26日3時 MDT から
風向・風速南南東 3m/s
視程10km以上
なし
26日10時 MDT から
風向・風速北北西 4m/s
視程10km以上
なし
KSLC 251729Z 2518/2624 29010KT P6SM SKC
FM252200 34012G20KT P6SM SKC
FM260300 33006KT P6SM SKC
FM260900 16005KT P6SM SKC
FM261600 34007KT P6SM SKC